createdAt,value
2018-07-02T00:00:15.492Z,19.00
2018-07-02T00:02:44.282Z,18.90
2018-07-02T00:05:13.041Z,19.00
2018-07-02T00:07:41.892Z,18.90
2018-07-02T00:10:10.781Z,18.80
2018-07-02T00:12:39.531Z,18.90
2018-07-02T00:15:08.386Z,18.80
2018-07-02T00:17:37.207Z,18.70
2018-07-02T00:20:06.607Z,18.80
2018-07-02T00:22:35.394Z,18.70
2018-07-02T00:25:04.163Z,18.70
2018-07-02T00:27:32.987Z,18.70
2018-07-02T00:30:01.793Z,18.70
2018-07-02T00:32:30.540Z,18.60
2018-07-02T00:34:59.299Z,18.60
2018-07-02T00:37:28.119Z,18.40
2018-07-02T00:39:56.892Z,18.40
2018-07-02T00:44:54.176Z,18.30
2018-07-02T00:47:22.939Z,18.40
2018-07-02T00:49:51.693Z,18.40
2018-07-02T00:52:20.479Z,18.40
2018-07-02T00:54:49.381Z,18.30
2018-07-02T00:57:18.123Z,18.30
2018-07-02T00:59:46.875Z,18.40
2018-07-02T01:02:16.692Z,18.30
2018-07-02T01:04:45.497Z,18.30
2018-07-02T01:07:14.287Z,18.20
2018-07-02T01:09:43.059Z,18.10
2018-07-02T01:12:11.909Z,18.20
2018-07-02T01:14:40.727Z,18.20
2018-07-02T01:17:09.484Z,18.10
2018-07-02T01:19:38.331Z,18.00
2018-07-02T01:22:07.112Z,18.00
2018-07-02T01:24:35.979Z,17.90
2018-07-02T01:27:04.859Z,17.80
2018-07-02T01:29:33.951Z,17.90
2018-07-02T01:32:02.723Z,17.80
2018-07-02T01:34:31.484Z,17.90
2018-07-02T01:37:00.239Z,17.90
2018-07-02T01:39:29.240Z,17.80
2018-07-02T01:41:58.768Z,17.90
2018-07-02T01:44:27.563Z,17.60
2018-07-02T01:46:56.325Z,17.60
2018-07-02T01:49:25.098Z,17.50
2018-07-02T01:51:53.872Z,17.60
2018-07-02T01:54:22.703Z,17.50
2018-07-02T01:56:51.515Z,17.40
2018-07-02T01:59:20.285Z,17.50
2018-07-02T02:01:49.028Z,17.30
2018-07-02T02:04:17.786Z,17.30
2018-07-02T02:06:46.587Z,17.10
2018-07-02T02:09:15.443Z,17.10
2018-07-02T02:11:44.279Z,16.90
2018-07-02T02:14:13.027Z,16.90
2018-07-02T02:16:41.880Z,16.90
2018-07-02T02:19:10.676Z,16.90
2018-07-02T02:21:39.443Z,16.90
2018-07-02T02:24:08.224Z,16.70
2018-07-02T02:26:37.088Z,16.80
2018-07-02T02:29:05.941Z,16.70
2018-07-02T02:31:34.670Z,16.50
2018-07-02T02:34:03.436Z,16.50
2018-07-02T02:36:32.303Z,16.40
2018-07-02T02:39:01.088Z,16.50
2018-07-02T02:41:29.869Z,16.40
2018-07-02T02:43:58.632Z,16.20
2018-07-02T02:46:28.480Z,16.30
2018-07-02T02:48:58.007Z,16.40
2018-07-02T02:53:55.204Z,16.30
2018-07-02T02:56:24.006Z,16.40
2018-07-02T02:58:53.115Z,16.40
2018-07-02T03:01:21.908Z,16.40
2018-07-02T03:03:50.660Z,16.40
2018-07-02T03:06:19.484Z,16.40
2018-07-02T03:08:48.323Z,16.50
2018-07-02T03:11:17.096Z,16.40
2018-07-02T03:16:14.324Z,16.40
2018-07-02T03:18:43.133Z,16.40
2018-07-02T03:21:12.645Z,16.50
2018-07-02T03:26:10.424Z,16.50
2018-07-02T03:28:39.226Z,16.40
2018-07-02T03:31:08.016Z,16.50
2018-07-02T03:33:36.809Z,16.40
2018-07-02T03:36:05.776Z,16.20
2018-07-02T03:38:34.585Z,16.10
2018-07-02T03:41:03.372Z,16.20
2018-07-02T03:43:32.131Z,16.10
2018-07-02T03:46:01.008Z,16.10
2018-07-02T03:48:29.851Z,16.10
2018-07-02T03:50:58.640Z,16.10
2018-07-02T03:53:27.412Z,16.00
2018-07-02T03:55:56.345Z,15.90
2018-07-02T03:58:25.072Z,15.90
2018-07-02T04:00:53.963Z,16.10
2018-07-02T04:03:23.704Z,16.10
2018-07-02T04:05:52.533Z,16.20
2018-07-02T04:08:21.400Z,16.20
2018-07-02T04:10:50.138Z,16.10
2018-07-02T04:13:18.983Z,16.00
2018-07-02T04:15:47.827Z,16.00
2018-07-02T04:18:16.582Z,16.00
2018-07-02T04:20:45.379Z,15.90
2018-07-02T04:23:14.130Z,15.90
2018-07-02T04:25:42.927Z,15.80
2018-07-02T04:28:11.673Z,15.90
2018-07-02T04:30:40.503Z,15.90
2018-07-02T04:33:09.243Z,16.00
2018-07-02T04:35:38.173Z,16.00
2018-07-02T04:38:06.928Z,16.20
2018-07-02T04:40:35.695Z,16.20
2018-07-02T04:43:04.613Z,16.20
2018-07-02T04:45:33.365Z,16.30
2018-07-02T04:48:02.157Z,16.30
2018-07-02T04:50:30.948Z,16.50
2018-07-02T04:52:59.744Z,16.50
2018-07-02T04:55:28.511Z,16.50
2018-07-02T04:57:57.364Z,16.60
2018-07-02T05:00:26.217Z,16.50
2018-07-02T05:02:54.956Z,16.60
2018-07-02T05:05:23.902Z,16.60
2018-07-02T05:07:52.832Z,16.70
2018-07-02T05:10:21.641Z,16.60
2018-07-02T05:12:50.400Z,16.70
2018-07-02T05:15:19.255Z,16.80
2018-07-02T05:20:16.956Z,16.80
2018-07-02T05:22:45.775Z,16.90
2018-07-02T05:25:14.658Z,16.90
2018-07-02T05:27:43.414Z,17.00
2018-07-02T05:30:12.194Z,17.00
2018-07-02T05:35:09.501Z,17.20
2018-07-02T05:37:38.280Z,17.20
2018-07-02T05:40:07.032Z,17.20
2018-07-02T05:45:04.232Z,17.40
2018-07-02T05:47:32.995Z,17.40
2018-07-02T05:50:01.904Z,17.50
2018-07-02T05:52:31.329Z,17.50
2018-07-02T05:55:00.168Z,17.50
2018-07-02T05:57:28.979Z,17.60
2018-07-02T05:59:57.748Z,17.70
2018-07-02T06:02:26.510Z,17.70
2018-07-02T06:04:55.282Z,17.70
2018-07-02T06:07:24.040Z,17.80
2018-07-02T06:09:52.895Z,17.80
2018-07-02T06:12:21.688Z,18.00
2018-07-02T06:14:50.464Z,18.00
2018-07-02T06:17:19.235Z,18.00
2018-07-02T06:19:47.991Z,18.00
2018-07-02T06:22:16.756Z,18.00
2018-07-02T06:24:45.543Z,18.10
2018-07-02T06:27:14.283Z,18.10
2018-07-02T06:29:43.032Z,18.20
2018-07-02T06:32:11.798Z,18.30
2018-07-02T06:34:40.570Z,18.40
2018-07-02T06:37:09.340Z,18.40
2018-07-02T06:39:38.383Z,18.40
2018-07-02T06:42:07.257Z,18.50
2018-07-02T06:44:36.279Z,18.60
2018-07-02T06:47:05.379Z,18.60
2018-07-02T06:49:34.143Z,18.70
2018-07-02T06:52:02.915Z,18.70
2018-07-02T06:54:31.686Z,18.80
2018-07-02T06:57:00.447Z,19.00
2018-07-02T06:59:29.216Z,19.10
2018-07-02T07:01:58.023Z,19.20
2018-07-02T07:04:26.784Z,19.30
2018-07-02T07:06:55.663Z,19.30
2018-07-02T07:09:24.485Z,19.30
2018-07-02T07:11:53.380Z,19.40
2018-07-02T07:14:22.168Z,19.40
2018-07-02T07:16:50.936Z,19.40
2018-07-02T07:19:19.707Z,19.60
2018-07-02T07:21:48.468Z,19.70
2018-07-02T07:24:17.229Z,19.80
2018-07-02T07:26:45.960Z,19.90
2018-07-02T07:29:14.724Z,19.90
2018-07-02T07:31:43.503Z,19.90
2018-07-02T07:34:12.503Z,20.00
2018-07-02T07:36:41.256Z,20.10
2018-07-02T07:39:11.375Z,20.10
2018-07-02T07:41:40.367Z,20.10
2018-07-02T07:44:09.172Z,20.20
2018-07-02T07:46:37.951Z,20.30
2018-07-02T07:49:06.704Z,20.30
2018-07-02T07:51:35.558Z,20.20
2018-07-02T07:56:32.723Z,20.40
2018-07-02T07:59:01.476Z,20.40
2018-07-02T08:01:30.229Z,20.50
2018-07-02T08:03:58.977Z,20.50
2018-07-02T08:06:27.900Z,20.60
2018-07-02T08:08:56.656Z,20.70
2018-07-02T08:11:25.448Z,20.80
2018-07-02T08:13:54.582Z,20.80
2018-07-02T08:16:23.366Z,20.90
2018-07-02T08:18:52.121Z,20.80
2018-07-02T08:21:21.016Z,20.90
2018-07-02T08:23:49.799Z,21.20
2018-07-02T08:26:18.791Z,21.20
2018-07-02T08:28:47.562Z,21.20
2018-07-02T08:31:16.432Z,21.20
2018-07-02T08:33:45.208Z,21.30
2018-07-02T08:36:14.172Z,21.30
2018-07-02T08:38:42.956Z,21.40
2018-07-02T08:41:11.723Z,21.50
2018-07-02T08:43:40.560Z,21.50
2018-07-02T08:46:09.330Z,21.60
2018-07-02T08:48:38.178Z,21.90
2018-07-02T08:51:07.042Z,22.00
2018-07-02T08:53:35.801Z,22.10
2018-07-02T08:56:04.599Z,22.00
2018-07-02T08:58:33.699Z,22.00
2018-07-02T09:01:02.514Z,22.20
2018-07-02T09:03:31.312Z,22.10
2018-07-02T09:06:00.068Z,22.10
2018-07-02T09:08:28.892Z,22.30
2018-07-02T09:10:57.668Z,22.30
2018-07-02T09:13:26.441Z,22.50
2018-07-02T09:15:55.199Z,22.70
2018-07-02T09:18:23.955Z,23.00
2018-07-02T09:20:52.730Z,23.20
2018-07-02T09:25:49.924Z,23.50
2018-07-02T09:28:18.832Z,23.60
2018-07-02T09:30:47.601Z,24.00
2018-07-02T09:33:16.374Z,24.20
2018-07-02T09:38:13.563Z,24.80
2018-07-02T09:40:42.411Z,24.90
2018-07-02T09:43:11.155Z,25.00
2018-07-02T09:45:39.939Z,25.20
2018-07-02T09:48:08.705Z,25.50
2018-07-02T09:50:37.477Z,25.70
2018-07-02T09:53:06.252Z,25.90
2018-07-02T09:55:35.029Z,26.00
2018-07-02T09:58:03.792Z,26.20
2018-07-02T10:00:33.938Z,26.30
2018-07-02T10:03:02.775Z,26.30
2018-07-02T10:05:31.511Z,26.50
2018-07-02T10:08:00.283Z,26.40
2018-07-02T10:10:29.057Z,26.70
2018-07-02T10:12:57.892Z,26.80
2018-07-02T10:15:26.739Z,27.00
2018-07-02T10:17:55.509Z,27.20
2018-07-02T10:20:24.341Z,27.30
2018-07-02T10:22:53.091Z,27.40
2018-07-02T10:25:21.856Z,27.70
2018-07-02T10:27:50.612Z,27.60
2018-07-02T10:30:19.377Z,27.80
2018-07-02T10:32:48.183Z,27.90
2018-07-02T10:35:16.958Z,27.90
2018-07-02T10:37:45.731Z,28.00
2018-07-02T10:40:14.552Z,28.10
2018-07-02T10:45:11.768Z,27.50
2018-07-02T10:47:40.543Z,27.60
2018-07-02T10:50:09.287Z,27.80
2018-07-02T10:52:38.046Z,27.80
2018-07-02T10:55:06.812Z,27.90
2018-07-02T10:57:35.586Z,27.80
2018-07-02T11:00:04.704Z,28.10
2018-07-02T11:02:33.468Z,28.30
2018-07-02T11:05:02.262Z,28.40
2018-07-02T11:07:31.047Z,28.60
2018-07-02T11:09:59.825Z,28.90
2018-07-02T11:12:28.592Z,28.90
2018-07-02T11:14:57.371Z,28.90
2018-07-02T11:17:26.175Z,29.00
2018-07-02T11:22:23.387Z,28.40
2018-07-02T11:24:52.155Z,28.60
2018-07-02T11:27:20.919Z,29.00
2018-07-02T11:29:49.685Z,29.00
2018-07-02T11:32:18.470Z,28.80
2018-07-02T11:34:47.219Z,28.90
2018-07-02T11:37:15.988Z,28.70
2018-07-02T11:39:44.745Z,28.80
2018-07-02T11:42:13.504Z,28.90
2018-07-02T11:44:42.460Z,29.20
2018-07-02T11:47:11.252Z,29.30
2018-07-02T11:49:40.122Z,29.60
2018-07-02T11:52:08.839Z,29.70
2018-07-02T11:54:37.603Z,29.50
2018-07-02T11:57:06.372Z,29.50
2018-07-02T11:59:35.144Z,29.50
2018-07-02T12:02:03.920Z,29.70
2018-07-02T12:04:32.659Z,29.80
2018-07-02T12:07:01.425Z,29.90
2018-07-02T12:09:30.189Z,29.90
2018-07-02T12:11:58.947Z,29.60
2018-07-02T12:14:27.695Z,29.80
2018-07-02T12:16:56.473Z,30.00
2018-07-02T12:21:53.652Z,30.40
2018-07-02T12:24:22.419Z,30.10
2018-07-02T12:26:51.187Z,30.20
2018-07-02T12:29:19.962Z,30.50
2018-07-02T12:31:48.727Z,30.30
2018-07-02T12:34:17.493Z,30.40
2018-07-02T12:36:46.292Z,30.80
2018-07-02T12:39:15.059Z,30.80
2018-07-02T12:41:43.848Z,31.00
2018-07-02T12:44:14.133Z,31.10
2018-07-02T12:46:44.099Z,31.00
2018-07-02T12:49:12.823Z,30.50
2018-07-02T12:51:41.594Z,30.60
2018-07-02T12:54:10.425Z,30.20
2018-07-02T12:56:39.122Z,29.80
2018-07-02T12:59:07.938Z,30.40
2018-07-02T13:01:36.707Z,30.80
2018-07-02T13:04:05.584Z,31.10
2018-07-02T13:06:34.342Z,30.90
2018-07-02T13:09:04.193Z,30.70
2018-07-02T13:11:32.975Z,30.70
2018-07-02T13:14:01.746Z,30.90
2018-07-02T13:16:30.559Z,30.70
2018-07-02T13:18:59.410Z,30.90
2018-07-02T13:21:28.090Z,30.00
2018-07-02T13:23:56.879Z,30.30
2018-07-02T13:26:25.656Z,30.30
2018-07-02T13:28:54.791Z,30.30
2018-07-02T13:31:24.393Z,30.50
2018-07-02T13:33:53.160Z,30.90
2018-07-02T13:36:21.993Z,31.10
2018-07-02T13:38:50.959Z,31.00
2018-07-02T13:41:19.971Z,30.90
2018-07-02T13:43:48.867Z,31.10
2018-07-02T13:48:46.215Z,31.20
2018-07-02T13:51:14.963Z,31.50
2018-07-02T13:53:43.731Z,31.10
2018-07-02T13:56:12.476Z,31.00
2018-07-02T13:58:41.256Z,31.00
2018-07-02T14:01:10.454Z,31.00
2018-07-02T14:03:39.241Z,31.00
2018-07-02T14:06:07.984Z,31.30
2018-07-02T14:08:36.748Z,31.50
2018-07-02T14:11:05.613Z,31.70
2018-07-02T14:13:34.399Z,31.50
2018-07-02T14:16:03.151Z,31.40
2018-07-02T14:18:31.971Z,31.60
2018-07-02T14:21:00.759Z,32.00
2018-07-02T14:23:29.532Z,32.00
2018-07-02T14:25:58.284Z,31.50
2018-07-02T14:28:27.070Z,31.60
2018-07-02T14:30:55.833Z,31.20
2018-07-02T14:33:24.623Z,31.20
2018-07-02T14:35:53.360Z,31.40
2018-07-02T14:38:22.135Z,31.20
2018-07-02T14:40:50.908Z,31.10
2018-07-02T14:43:19.676Z,31.30
2018-07-02T14:45:48.473Z,31.40
2018-07-02T14:48:17.243Z,31.10
2018-07-02T14:50:46.005Z,30.70
2018-07-02T14:53:14.793Z,30.90
2018-07-02T14:55:43.567Z,30.90
2018-07-02T14:58:12.325Z,30.90
2018-07-02T15:00:41.119Z,31.30
2018-07-02T15:03:09.883Z,31.40
2018-07-02T15:05:38.667Z,31.30
2018-07-02T15:08:07.421Z,31.10
2018-07-02T15:10:36.240Z,31.20
2018-07-02T15:13:05.012Z,31.00
2018-07-02T15:15:33.817Z,30.70
2018-07-02T15:18:02.693Z,30.50
2018-07-02T15:20:31.539Z,30.40
2018-07-02T15:23:00.356Z,30.40
2018-07-02T15:25:29.081Z,30.80
2018-07-02T15:27:57.847Z,31.10
2018-07-02T15:30:26.632Z,31.40
2018-07-02T15:32:55.391Z,31.50
2018-07-02T15:35:24.552Z,31.30
2018-07-02T15:37:53.684Z,31.40
2018-07-02T15:40:22.443Z,31.00
2018-07-02T15:42:51.219Z,30.60
2018-07-02T15:45:20.013Z,31.10
2018-07-02T15:47:48.790Z,31.10
2018-07-02T15:50:17.562Z,30.80
2018-07-02T15:52:46.467Z,30.70
2018-07-02T15:55:15.108Z,30.70
2018-07-02T15:57:43.863Z,30.80
2018-07-02T16:00:12.672Z,31.00
2018-07-02T16:02:41.429Z,31.00
2018-07-02T16:05:10.267Z,30.60
2018-07-02T16:07:39.008Z,30.50
2018-07-02T16:10:07.887Z,30.10
2018-07-02T16:12:36.670Z,30.40
2018-07-02T16:15:05.656Z,30.70
2018-07-02T16:17:34.456Z,30.90
2018-07-02T16:20:03.365Z,30.90
2018-07-02T16:22:32.199Z,30.50
2018-07-02T16:25:01.005Z,30.30
2018-07-02T16:27:29.804Z,30.10
2018-07-02T16:29:58.580Z,29.90
2018-07-02T16:32:27.368Z,30.10
2018-07-02T16:34:56.163Z,30.30
2018-07-02T16:37:24.931Z,30.00
2018-07-02T16:39:53.700Z,29.90
2018-07-02T16:42:22.455Z,30.00
2018-07-02T16:44:51.226Z,30.10
2018-07-02T16:47:20.016Z,29.90
2018-07-02T16:49:48.792Z,29.90
2018-07-02T16:52:17.540Z,30.00
2018-07-02T16:54:46.396Z,29.90
2018-07-02T16:57:15.102Z,29.90
2018-07-02T16:59:43.912Z,29.70
2018-07-02T17:02:12.672Z,29.60
2018-07-02T17:04:41.480Z,29.40
2018-07-02T17:07:10.288Z,29.40
2018-07-02T17:09:39.073Z,29.40
2018-07-02T17:12:07.890Z,29.40
2018-07-02T17:14:36.992Z,29.20
2018-07-02T17:17:05.738Z,29.20
2018-07-02T17:19:34.539Z,29.10
2018-07-02T17:22:03.305Z,28.70
2018-07-02T17:24:32.104Z,28.80
2018-07-02T17:27:00.864Z,28.70
2018-07-02T17:29:29.635Z,28.50
2018-07-02T17:31:58.409Z,28.40
2018-07-02T17:34:27.221Z,28.40
2018-07-02T17:36:55.958Z,28.30
2018-07-02T17:39:24.803Z,28.20
2018-07-02T17:41:53.564Z,28.30
2018-07-02T17:44:22.437Z,28.10
2018-07-02T17:46:51.212Z,27.80
2018-07-02T17:49:20.006Z,27.70
2018-07-02T17:51:48.811Z,27.70
2018-07-02T17:54:17.575Z,27.50
2018-07-02T17:56:46.329Z,27.40
2018-07-02T17:59:15.100Z,27.40
2018-07-02T18:01:43.980Z,27.30
2018-07-02T18:04:12.731Z,27.20
2018-07-02T18:06:41.547Z,27.10
2018-07-02T18:09:11.480Z,26.90
2018-07-02T18:11:40.330Z,26.80
2018-07-02T18:14:09.096Z,26.60
2018-07-02T18:16:37.903Z,26.50
2018-07-02T18:19:06.695Z,26.30
2018-07-02T18:21:35.611Z,26.30
2018-07-02T18:24:04.407Z,26.40
2018-07-02T18:26:33.211Z,26.40
2018-07-02T18:29:01.996Z,26.40
2018-07-02T18:31:30.787Z,26.30
2018-07-02T18:33:59.600Z,26.20
2018-07-02T18:36:28.393Z,26.20
2018-07-02T18:38:57.147Z,26.10
2018-07-02T18:41:25.956Z,26.10
2018-07-02T18:43:55.514Z,26.00
2018-07-02T18:46:24.225Z,25.80
2018-07-02T18:48:53.051Z,25.70
2018-07-02T18:53:51.222Z,25.60
2018-07-02T18:56:20.026Z,25.40
2018-07-02T18:58:48.788Z,25.30
2018-07-02T19:03:52.596Z,25.10
2018-07-02T19:06:21.442Z,24.80
2018-07-02T19:08:50.220Z,24.70
2018-07-02T19:11:19.004Z,24.60
2018-07-02T19:13:47.753Z,24.40
2018-07-02T19:16:16.517Z,24.30
2018-07-02T19:18:45.362Z,24.20
2018-07-02T19:21:14.019Z,24.00
2018-07-02T19:23:42.772Z,24.00
2018-07-02T19:26:11.524Z,24.00
2018-07-02T19:28:40.316Z,23.70
2018-07-02T19:31:09.097Z,23.50
2018-07-02T19:33:37.913Z,23.20
2018-07-02T19:36:06.703Z,23.10
2018-07-02T19:38:36.368Z,22.90
2018-07-02T19:41:05.806Z,22.90
2018-07-02T19:43:34.506Z,22.90
2018-07-02T19:46:03.332Z,22.90
2018-07-02T19:48:32.105Z,22.80
2018-07-02T19:51:00.906Z,22.80
2018-07-02T19:53:29.731Z,22.80
2018-07-02T19:55:58.498Z,22.80
2018-07-02T19:58:27.323Z,22.90
2018-07-02T20:00:56.350Z,22.90
2018-07-02T20:03:25.188Z,22.90
2018-07-02T20:05:53.931Z,23.00
2018-07-02T20:08:22.685Z,23.00
2018-07-02T20:10:51.441Z,23.10
2018-07-02T20:13:20.253Z,23.10
2018-07-02T20:15:48.999Z,23.20
2018-07-02T20:18:17.803Z,23.20
2018-07-02T20:20:46.600Z,23.20
2018-07-02T20:23:15.364Z,23.20
2018-07-02T20:25:44.160Z,23.30
2018-07-02T20:28:12.964Z,23.30
2018-07-02T20:30:41.807Z,23.30
2018-07-02T20:33:10.543Z,23.20
2018-07-02T20:35:39.348Z,23.20
2018-07-02T20:38:08.115Z,23.20
2018-07-02T20:40:36.883Z,23.20
2018-07-02T20:43:05.657Z,23.10
2018-07-02T20:45:34.744Z,23.10
2018-07-02T20:48:03.499Z,23.10
2018-07-02T20:50:32.264Z,23.10
2018-07-02T20:53:01.036Z,23.20
2018-07-02T20:55:29.812Z,23.20
2018-07-02T20:57:58.729Z,23.20
2018-07-02T21:00:32.199Z,23.10
2018-07-02T21:03:02.549Z,23.10
2018-07-02T21:05:31.829Z,23.10
2018-07-02T21:08:00.599Z,23.10
2018-07-02T21:10:29.670Z,23.10
2018-07-02T21:12:58.271Z,23.10
2018-07-02T21:15:27.028Z,23.10
2018-07-02T21:17:55.831Z,23.00
2018-07-02T21:20:24.823Z,23.00
2018-07-02T21:22:53.614Z,22.90
2018-07-02T21:25:22.405Z,22.90
2018-07-02T21:27:51.396Z,22.90
2018-07-02T21:30:20.225Z,22.90
2018-07-02T21:32:48.987Z,22.90
2018-07-02T21:35:17.751Z,22.90
2018-07-02T21:37:46.624Z,22.80
2018-07-02T21:40:15.568Z,22.90
2018-07-02T21:42:44.411Z,22.90
2018-07-02T21:45:13.183Z,22.90
2018-07-02T21:47:42.004Z,22.90
2018-07-02T21:50:10.822Z,22.90
2018-07-02T21:52:39.614Z,22.90
2018-07-02T21:55:08.378Z,22.80
2018-07-02T21:57:37.159Z,22.70
2018-07-02T22:00:09.024Z,22.80
2018-07-02T22:02:38.680Z,22.80
2018-07-02T22:05:07.968Z,22.80
2018-07-02T22:07:36.963Z,22.70
2018-07-02T22:10:06.062Z,22.70
2018-07-02T22:12:34.883Z,22.60
2018-07-02T22:15:03.796Z,22.60
2018-07-02T22:17:32.639Z,22.60
2018-07-02T22:20:01.407Z,22.60
2018-07-02T22:22:30.262Z,22.60
2018-07-02T22:24:59.064Z,22.60
2018-07-02T22:27:27.828Z,22.60
2018-07-02T22:29:56.740Z,22.60
2018-07-02T22:32:25.599Z,22.60
2018-07-02T22:34:54.413Z,22.50
2018-07-02T22:37:23.159Z,22.50
2018-07-02T22:42:20.443Z,22.50
2018-07-02T22:44:50.051Z,22.50
2018-07-02T22:47:18.779Z,22.50
2018-07-02T22:49:47.870Z,22.40
2018-07-02T22:52:16.644Z,22.40
2018-07-02T22:54:45.420Z,22.40
2018-07-02T22:57:14.372Z,22.40
2018-07-02T22:59:43.312Z,22.20
2018-07-02T23:02:12.118Z,22.00
2018-07-02T23:04:40.911Z,21.80
2018-07-02T23:07:09.856Z,21.60
2018-07-02T23:09:40.026Z,21.40
2018-07-02T23:12:08.842Z,21.20
2018-07-02T23:14:37.639Z,21.20
2018-07-02T23:17:06.363Z,21.10
2018-07-02T23:19:35.252Z,21.00
2018-07-02T23:22:04.092Z,20.90
2018-07-02T23:24:32.907Z,21.00
2018-07-02T23:27:01.661Z,20.90
2018-07-02T23:29:30.449Z,20.90
2018-07-02T23:31:59.221Z,20.90
2018-07-02T23:34:28.047Z,20.70
2018-07-02T23:36:56.851Z,20.70
2018-07-02T23:41:54.081Z,20.60
2018-07-02T23:44:22.869Z,20.50
2018-07-02T23:46:51.863Z,20.60
2018-07-02T23:49:21.676Z,20.60
2018-07-02T23:51:50.451Z,20.50
2018-07-02T23:54:19.189Z,20.40
2018-07-02T23:56:48.064Z,20.40
2018-07-02T23:59:16.951Z,20.30
